sensor_id;sensor_type;location;lat;lon;timestamp;temperature;humidity
16114;DHT22;8161;-33.910;151.156;2023-06-04T00:00:26;18.30;99.90
16114;DHT22;8161;-33.910;151.156;2023-06-04T00:02:53;18.80;99.90
16114;DHT22;8161;-33.910;151.156;2023-06-04T00:05:20;18.20;99.90
16114;DHT22;8161;-33.910;151.156;2023-06-04T00:07:54;18.70;99.90
16114;DHT22;8161;-33.910;151.156;2023-06-04T00:10:21;18.70;99.90
16114;DHT22;8161;-33.910;151.156;2023-06-04T00:12:49;18.30;99.90
16114;DHT22;8161;-33.910;151.156;2023-06-04T00:15:16;18.30;99.90
16114;DHT22;8161;-33.910;151.156;2023-06-04T00:20:11;18.50;99.90
16114;DHT22;8161;-33.910;151.156;2023-06-04T00:22:38;18.30;99.90
16114;DHT22;8161;-33.910;151.156;2023-06-04T00:25:09;18.00;99.90
16114;DHT22;8161;-33.910;151.156;2023-06-04T00:27:36;18.20;99.90
16114;DHT22;8161;-33.910;151.156;2023-06-04T00:32:31;17.90;99.90
16114;DHT22;8161;-33.910;151.156;2023-06-04T00:34:59;18.40;99.90
16114;DHT22;8161;-33.910;151.156;2023-06-04T00:37:27;18.00;99.90
16114;DHT22;8161;-33.910;151.156;2023-06-04T00:39:55;18.70;99.90
16114;DHT22;8161;-33.910;151.156;2023-06-04T00:42:22;18.20;99.90
16114;DHT22;8161;-33.910;151.156;2023-06-04T00:44:50;18.20;99.90
16114;DHT22;8161;-33.910;151.156;2023-06-04T00:47:18;18.60;99.90
16114;DHT22;8161;-33.910;151.156;2023-06-04T00:49:49;18.60;99.90
16114;DHT22;8161;-33.910;151.156;2023-06-04T00:54:43;18.90;99.90
16114;DHT22;8161;-33.910;151.156;2023-06-04T00:57:11;19.10;99.90
16114;DHT22;8161;-33.910;151.156;2023-06-04T00:59:39;18.70;99.90
16114;DHT22;8161;-33.910;151.156;2023-06-04T01:02:20;19.20;99.90
16114;DHT22;8161;-33.910;151.156;2023-06-04T01:04:59;19.40;99.90
16114;DHT22;8161;-33.910;151.156;2023-06-04T01:07:30;19.00;99.90
16114;DHT22;8161;-33.910;151.156;2023-06-04T01:09:57;18.90;99.90
16114;DHT22;8161;-33.910;151.156;2023-06-04T01:12:25;19.20;99.90
16114;DHT22;8161;-33.910;151.156;2023-06-04T01:17:26;19.10;99.90
16114;DHT22;8161;-33.910;151.156;2023-06-04T01:20:27;19.20;99.90
16114;DHT22;8161;-33.910;151.156;2023-06-04T01:28:16;19.00;99.90
16114;DHT22;8161;-33.910;151.156;2023-06-04T01:30:47;19.50;99.90
16114;DHT22;8161;-33.910;151.156;2023-06-04T01:33:18;19.50;99.90
16114;DHT22;8161;-33.910;151.156;2023-06-04T01:38:13;19.10;99.90
16114;DHT22;8161;-33.910;151.156;2023-06-04T01:40:41;19.60;99.90
16114;DHT22;8161;-33.910;151.156;2023-06-04T01:43:08;19.80;99.90
16114;DHT22;8161;-33.910;151.156;2023-06-04T01:45:36;19.60;99.90
16114;DHT22;8161;-33.910;151.156;2023-06-04T01:48:08;19.60;99.90
16114;DHT22;8161;-33.910;151.156;2023-06-04T01:50:35;19.70;99.90
16114;DHT22;8161;-33.910;151.156;2023-06-04T01:53:02;19.90;99.90
16114;DHT22;8161;-33.910;151.156;2023-06-04T01:55:30;19.90;99.90
16114;DHT22;8161;-33.910;151.156;2023-06-04T01:58:00;19.90;99.90
16114;DHT22;8161;-33.910;151.156;2023-06-04T02:00:27;19.50;99.90
16114;DHT22;8161;-33.910;151.156;2023-06-04T02:02:58;19.90;99.90
16114;DHT22;8161;-33.910;151.156;2023-06-04T02:05:26;19.70;99.90
16114;DHT22;8161;-33.910;151.156;2023-06-04T02:07:53;19.50;99.90
